Time,TemperatureF,DewpointF,PressureIn,WindDirection,WindDirectionDegrees,WindSpeedMPH,WindSpeedGustMPH,Humidity,HourlyPrecipIn,Conditions,Clouds,dailyrainin,SoftwareType,DateUTC
2013-05-28 00:03:00,57.4,13.0,29.69,West,268,0.0,0.0,17,0.00,,---,0.00,VWS V14.00,2013-05-28 07:03:00,
2013-05-28 00:08:00,57.3,12.9,29.69,West,268,0.0,0.0,17,0.00,,---,0.00,VWS V14.00,2013-05-28 07:08:00,
2013-05-28 00:13:00,56.8,12.5,29.69,West,268,0.0,0.0,17,0.00,,---,0.00,VWS V14.00,2013-05-28 07:13:00,
2013-05-28 00:18:00,56.1,14.4,29.69,West,268,0.0,0.0,19,0.00,,---,0.00,VWS V14.00,2013-05-28 07:18:00,
2013-05-28 00:23:00,56.3,14.6,29.69,West,268,0.0,0.0,19,0.00,,---,0.00,VWS V14.00,2013-05-28 07:23:00,
2013-05-28 00:28:00,56.6,16.0,29.69,West,268,0.0,0.0,20,0.00,,---,0.00,VWS V14.00,2013-05-28 07:28:00,
2013-05-28 00:33:00,56.7,14.9,29.69,West,268,0.0,0.0,19,0.00,,---,0.00,VWS V14.00,2013-05-28 07:33:00,
2013-05-28 00:38:00,55.9,13.0,29.69,West,268,0.0,0.0,18,0.00,,---,0.00,VWS V14.00,2013-05-28 07:38:00,
2013-05-28 00:43:00,54.4,14.2,29.69,West,268,0.0,0.0,20,0.00,,---,0.00,VWS V14.00,2013-05-28 07:43:00,
2013-05-28 00:48:00,53.4,15.5,29.68,West,268,0.0,0.0,22,0.00,,---,0.00,VWS V14.00,2013-05-28 07:48:00,
2013-05-28 00:53:00,53.4,16.5,29.69,West,268,0.0,0.0,23,0.00,,---,0.00,VWS V14.00,2013-05-28 07:53:00,
2013-05-28 00:58:00,53.7,17.8,29.68,West,268,0.0,0.0,24,0.00,,---,0.00,VWS V14.00,2013-05-28 07:58:00,
2013-05-28 01:03:00,54.1,18.1,29.68,West,268,0.0,0.0,24,0.00,,---,0.00,VWS V14.00,2013-05-28 08:03:00,
2013-05-28 01:08:00,54.9,18.8,29.68,West,268,0.0,0.0,24,0.00,,---,0.00,VWS V14.00,2013-05-28 08:08:00,
2013-05-28 01:13:00,55.6,20.4,29.68,West,268,0.0,0.0,25,0.00,,---,0.00,VWS V14.00,2013-05-28 08:13:00,
2013-05-28 01:18:00,56.2,20.9,29.67,West,268,0.0,0.0,25,0.00,,---,0.00,VWS V14.00,2013-05-28 08:18:00,
2013-05-28 01:23:00,55.9,19.6,29.67,West,268,0.0,0.0,24,0.00,,---,0.00,VWS V14.00,2013-05-28 08:23:00,
2013-05-28 01:28:00,55.5,20.3,29.67,West,268,0.0,0.0,25,0.00,,---,0.00,VWS V14.00,2013-05-28 08:28:00,
2013-05-28 01:33:00,55.0,20.8,29.67,West,268,0.0,0.0,26,0.00,,---,0.00,VWS V14.00,2013-05-28 08:33:00,
2013-05-28 01:38:00,54.8,18.7,29.67,West,268,0.0,0.0,24,0.00,,---,0.00,VWS V14.00,2013-05-28 08:38:00,
2013-05-28 01:44:00,53.8,19.7,29.67,West,268,0.0,0.0,26,0.00,,---,0.00,VWS V14.00,2013-05-28 08:44:00,
2013-05-28 01:49:00,53.3,19.3,29.67,West,268,0.0,0.0,26,0.00,,---,0.00,VWS V14.00,2013-05-28 08:49:00,
2013-05-28 01:54:00,52.8,18.9,29.67,West,268,0.0,0.0,26,0.00,,---,0.00,VWS V14.00,2013-05-28 08:54:00,
2013-05-28 01:59:00,52.2,20.1,29.67,West,268,0.0,0.0,28,0.00,,---,0.00,VWS V14.00,2013-05-28 08:59:00,
2013-05-28 02:04:00,52.1,20.0,29.67,West,268,0.0,0.0,28,0.00,,---,0.00,VWS V14.00,2013-05-28 09:04:00,
2013-05-28 02:09:00,52.6,21.3,29.67,West,268,0.0,0.0,29,0.00,,---,0.00,VWS V14.00,2013-05-28 09:09:00,
2013-05-28 02:14:00,53.1,20.9,29.67,West,268,0.0,0.0,28,0.00,,---,0.00,VWS V14.00,2013-05-28 09:14:00,
2013-05-28 02:19:00,53.0,20.8,29.66,West,268,0.0,0.0,28,0.00,,---,0.00,VWS V14.00,2013-05-28 09:19:00,
2013-05-28 02:24:00,53.2,21.8,29.66,West,268,0.0,0.0,29,0.00,,---,0.00,VWS V14.00,2013-05-28 09:24:00,
2013-05-28 02:29:00,53.0,19.9,29.66,West,268,0.0,0.0,27,0.00,,---,0.00,VWS V14.00,2013-05-28 09:29:00,
2013-05-28 02:34:00,53.0,21.6,29.66,West,268,0.0,3.0,29,0.00,,---,0.00,VWS V14.00,2013-05-28 09:34:00,
2013-05-28 02:39:00,53.7,22.2,29.66,West,268,0.0,3.0,29,0.00,,---,0.00,VWS V14.00,2013-05-28 09:39:00,
2013-05-28 02:44:00,54.2,21.8,29.66,West,268,0.0,3.0,28,0.00,,---,0.00,VWS V14.00,2013-05-28 09:44:00,
2013-05-28 02:49:00,54.7,23.1,29.66,West,268,0.0,3.0,29,0.00,,---,0.00,VWS V14.00,2013-05-28 09:49:00,
2013-05-28 02:54:00,55.0,22.5,29.66,West,268,0.0,3.0,28,0.00,,---,0.00,VWS V14.00,2013-05-28 09:54:00,
2013-05-28 02:59:00,55.2,22.7,29.65,West,268,0.0,3.0,28,0.00,,---,0.00,VWS V14.00,2013-05-28 09:59:00,
2013-05-28 03:04:00,55.1,21.7,29.65,West,268,0.0,0.0,27,0.00,,---,0.00,VWS V14.00,2013-05-28 10:04:00,
2013-05-28 03:09:00,53.6,20.5,29.64,West,268,0.0,0.0,27,0.00,,---,0.00,VWS V14.00,2013-05-28 10:09:00,
2013-05-28 03:14:00,52.8,22.2,29.64,West,268,0.0,0.0,30,0.00,,---,0.00,VWS V14.00,2013-05-28 10:14:00,
2013-05-28 03:19:00,53.2,22.6,29.64,West,268,0.0,1.0,30,0.00,,---,0.00,VWS V14.00,2013-05-28 10:19:00,
2013-05-28 03:24:00,53.9,22.4,29.64,West,268,0.0,1.0,29,0.00,,---,0.00,VWS V14.00,2013-05-28 10:24:00,
2013-05-28 03:29:00,54.0,22.5,29.64,West,268,0.0,1.0,29,0.00,,---,0.00,VWS V14.00,2013-05-28 10:29:00,
2013-05-28 03:34:00,54.2,22.6,29.64,West,268,0.0,0.0,29,0.00,,---,0.00,VWS V14.00,2013-05-28 10:34:00,
2013-05-28 03:39:00,54.5,22.9,29.64,West,268,0.0,0.0,29,0.00,,---,0.00,VWS V14.00,2013-05-28 10:39:00,
2013-05-28 03:44:00,54.9,23.3,29.64,West,268,0.0,0.0,29,0.00,,---,0.00,VWS V14.00,2013-05-28 10:44:00,
2013-05-28 03:49:00,54.9,23.3,29.64,West,268,0.0,0.0,29,0.00,,---,0.00,VWS V14.00,2013-05-28 10:49:00,
2013-05-28 03:54:00,54.7,23.1,29.64,West,268,0.0,0.0,29,0.00,,---,0.00,VWS V14.00,2013-05-28 10:54:00,
2013-05-28 04:00:00,54.2,22.6,29.64,West,268,0.0,0.0,29,0.00,,---,0.00,VWS V14.00,2013-05-28 11:00:00,
2013-05-28 04:05:00,54.1,23.4,29.64,West,268,0.0,0.0,30,0.00,,---,0.00,VWS V14.00,2013-05-28 11:05:00,
2013-05-28 04:10:00,54.6,23.0,29.64,West,268,0.0,0.0,29,0.00,,---,0.00,VWS V14.00,2013-05-28 11:10:00,
2013-05-28 04:15:00,54.8,24.0,29.64,West,268,0.0,0.0,30,0.00,,---,0.00,VWS V14.00,2013-05-28 11:15:00,
2013-05-28 04:20:00,54.8,24.0,29.63,West,268,0.0,0.0,30,0.00,,---,0.00,VWS V14.00,2013-05-28 11:20:00,
2013-05-28 04:25:00,54.2,24.2,29.63,West,268,0.0,0.0,31,0.00,,---,0.00,VWS V14.00,2013-05-28 11:25:00,
2013-05-28 04:30:00,54.1,24.2,29.63,West,268,0.0,0.0,31,0.00,,---,0.00,VWS V14.00,2013-05-28 11:30:00,
2013-05-28 04:35:00,54.3,24.3,29.63,West,268,0.0,0.0,31,0.00,,---,0.00,VWS V14.00,2013-05-28 11:35:00,
2013-05-28 04:40:00,54.7,24.7,29.63,West,268,0.0,0.0,31,0.00,,---,0.00,VWS V14.00,2013-05-28 11:40:00,
2013-05-28 04:45:00,55.0,24.2,29.63,West,268,0.0,0.0,30,0.00,,---,0.00,VWS V14.00,2013-05-28 11:45:00,
2013-05-28 04:50:00,55.0,24.2,29.63,West,268,0.0,2.0,30,0.00,,---,0.00,VWS V14.00,2013-05-28 11:50:00,
2013-05-28 04:55:00,54.7,24.7,29.63,West,268,0.0,2.0,31,0.00,,---,0.00,VWS V14.00,2013-05-28 11:55:00,
2013-05-28 05:00:00,55.0,24.9,29.62,West,268,0.0,2.0,31,0.00,,---,0.00,VWS V14.00,2013-05-28 12:00:00,
2013-05-28 05:05:00,55.9,24.9,29.62,West,268,2.0,2.0,30,0.00,,---,0.00,VWS V14.00,2013-05-28 12:05:00,
2013-05-28 05:10:00,56.9,25.0,29.62,West,268,0.0,2.0,29,0.00,,---,0.00,VWS V14.00,2013-05-28 12:10:00,
2013-05-28 05:15:00,57.3,24.5,29.62,West,268,0.0,2.0,28,0.00,,---,0.00,VWS V14.00,2013-05-28 12:15:00,
2013-05-28 05:20:00,57.6,24.8,29.62,West,267,0.0,2.0,28,0.00,,---,0.00,VWS V14.00,2013-05-28 12:20:00,
2013-05-28 05:25:00,57.9,25.0,29.62,West,267,0.0,2.0,28,0.00,,---,0.00,VWS V14.00,2013-05-28 12:25:00,
2013-05-28 05:30:00,58.6,25.6,29.62,West,267,0.0,2.0,28,0.00,,---,0.00,VWS V14.00,2013-05-28 12:30:00,
2013-05-28 05:35:00,59.2,24.4,29.62,SSE,154,3.0,5.0,26,0.00,,---,0.00,VWS V14.00,2013-05-28 12:35:00,
2013-05-28 05:40:00,59.5,24.6,29.63,SSE,153,0.0,7.0,26,0.00,,---,0.00,VWS V14.00,2013-05-28 12:40:00,
2013-05-28 05:45:00,59.2,23.4,29.63,SSE,153,0.0,7.0,25,0.00,,---,0.00,VWS V14.00,2013-05-28 12:45:00,
2013-05-28 05:50:00,59.4,23.6,29.64,SSE,153,0.0,7.0,25,0.00,,---,0.00,VWS V14.00,2013-05-28 12:50:00,
2013-05-28 05:55:00,57.8,23.2,29.64,SSE,153,0.0,7.0,26,0.00,,---,0.00,VWS V14.00,2013-05-28 12:55:00,
2013-05-28 06:00:00,56.2,23.5,29.64,SSE,153,0.0,7.0,28,0.00,,---,0.00,VWS V14.00,2013-05-28 13:00:00,
2013-05-28 06:05:00,55.6,23.9,29.64,South,190,0.0,0.0,29,0.00,,---,0.00,VWS V14.00,2013-05-28 13:05:00,
2013-05-28 06:10:00,55.8,24.0,29.64,South,190,0.0,0.0,29,0.00,,---,0.00,VWS V14.00,2013-05-28 13:10:00,
2013-05-28 06:15:00,56.8,24.9,29.64,South,190,0.0,0.0,29,0.00,,---,0.00,VWS V14.00,2013-05-28 13:15:00,
2013-05-28 06:20:00,58.2,25.3,29.64,South,190,0.0,0.0,28,0.00,,---,0.00,VWS V14.00,2013-05-28 13:20:00,
2013-05-28 06:26:00,59.7,26.6,29.63,South,190,0.0,0.0,28,0.00,,---,0.00,VWS V14.00,2013-05-28 13:26:00,
2013-05-28 06:31:00,61.2,27.0,29.63,South,190,0.0,0.0,27,0.00,,---,0.00,VWS V14.00,2013-05-28 13:31:00,
2013-05-28 06:36:00,62.6,27.3,29.63,South,190,0.0,0.0,26,0.00,,---,0.00,VWS V14.00,2013-05-28 13:36:00,
2013-05-28 06:41:00,64.2,26.7,29.63,ESE,116,2.0,3.0,24,0.00,,---,0.00,VWS V14.00,2013-05-28 13:41:00,
2013-05-28 06:46:00,65.4,26.7,29.63,ESE,116,0.0,3.0,23,0.00,,---,0.00,VWS V14.00,2013-05-28 13:46:00,
2013-05-28 06:51:00,66.6,26.6,29.62,ESE,115,0.0,3.0,22,0.00,,---,0.00,VWS V14.00,2013-05-28 13:51:00,
2013-05-28 06:56:00,67.8,26.5,29.62,ESE,115,0.0,3.0,21,0.00,,---,0.00,VWS V14.00,2013-05-28 13:56:00,
2013-05-28 07:01:00,68.9,26.2,29.63,ESE,115,0.0,3.0,20,0.00,,---,0.00,VWS V14.00,2013-05-28 14:01:00,
2013-05-28 07:06:00,69.5,26.7,29.62,ESE,114,1.0,2.0,20,0.00,,---,0.00,VWS V14.00,2013-05-28 14:06:00,
2013-05-28 07:11:00,70.2,27.3,29.62,ESE,114,0.0,2.0,20,0.00,,---,0.00,VWS V14.00,2013-05-28 14:11:00,
2013-05-28 07:16:00,70.9,27.9,29.62,ESE,114,0.0,4.0,20,0.00,,---,0.00,VWS V14.00,2013-05-28 14:16:00,
2013-05-28 07:21:00,71.4,27.0,29.62,ESE,114,0.0,4.0,19,0.00,,---,0.00,VWS V14.00,2013-05-28 14:21:00,
2013-05-28 07:26:00,71.8,26.0,29.62,ESE,119,4.0,4.0,18,0.00,,---,0.00,VWS V14.00,2013-05-28 14:26:00,
2013-05-28 07:31:00,72.0,26.2,29.62,SSE,153,0.0,5.0,18,0.00,,---,0.00,VWS V14.00,2013-05-28 14:31:00,
2013-05-28 07:36:00,72.2,26.4,29.62,SSE,148,0.0,4.0,18,0.00,,---,0.00,VWS V14.00,2013-05-28 14:36:00,
2013-05-28 07:41:00,72.8,26.9,29.63,SSE,148,0.0,4.0,18,0.00,,---,0.00,VWS V14.00,2013-05-28 14:41:00,
2013-05-28 07:46:00,72.9,27.0,29.63,SSE,148,0.0,5.0,18,0.00,,---,0.00,VWS V14.00,2013-05-28 14:46:00,
2013-05-28 07:51:00,73.3,27.3,29.63,SSE,148,0.0,5.0,18,0.00,,---,0.00,VWS V14.00,2013-05-28 14:51:00,
2013-05-28 07:56:00,73.8,26.3,29.64,SSE,162,2.0,8.0,17,0.00,,---,0.00,VWS V14.00,2013-05-28 14:56:00,
2013-05-28 08:01:00,74.2,26.6,29.63,SE,142,0.0,8.0,17,0.00,,---,0.00,VWS V14.00,2013-05-28 15:01:00,
2013-05-28 08:06:00,74.5,25.4,29.64,SSE,164,2.0,5.0,16,0.00,,---,0.00,VWS V14.00,2013-05-28 15:06:00,
2013-05-28 08:11:00,74.4,25.3,29.63,SSE,157,0.0,5.0,16,0.00,,---,0.00,VWS V14.00,2013-05-28 15:11:00,
2013-05-28 08:16:00,74.7,25.6,29.64,SSE,160,0.0,5.0,16,0.00,,---,0.00,VWS V14.00,2013-05-28 15:16:00,
2013-05-28 08:21:00,75.0,25.8,29.64,South,190,0.0,5.0,16,0.00,,---,0.00,VWS V14.00,2013-05-28 15:21:00,
2013-05-28 08:26:00,75.3,24.5,29.64,SSW,202,0.0,7.0,15,0.00,,---,0.00,VWS V14.00,2013-05-28 15:26:00,
2013-05-28 08:31:00,75.5,24.7,29.64,SSE,154,0.0,9.0,15,0.00,,---,0.00,VWS V14.00,2013-05-28 15:31:00,
2013-05-28 08:36:00,75.4,24.6,29.64,SSE,162,4.0,14.0,15,0.00,,---,0.00,VWS V14.00,2013-05-28 15:36:00,
2013-05-28 08:41:00,75.6,24.7,29.64,South,185,0.0,14.0,15,0.00,,---,0.00,VWS V14.00,2013-05-28 15:41:00,
2013-05-28 08:46:00,76.1,25.1,29.64,South,180,4.0,14.0,15,0.00,,---,0.00,VWS V14.00,2013-05-28 15:46:00,
2013-05-28 08:51:00,76.1,23.5,29.64,SSW,196,0.0,14.0,14,0.00,,---,0.00,VWS V14.00,2013-05-28 15:51:00,
2013-05-28 08:57:00,76.3,23.6,29.64,SSE,161,4.0,14.0,14,0.00,,---,0.00,VWS V14.00,2013-05-28 15:57:00,
2013-05-28 09:02:00,76.5,23.8,29.64,SE,129,0.0,0.0,14,0.00,,---,0.00,VWS V14.00,2013-05-28 16:02:00,
2013-05-28 09:07:00,76.8,22.3,29.64,SE,129,5.0,12.0,13,0.00,,---,0.00,VWS V14.00,2013-05-28 16:07:00,
2013-05-28 09:12:00,76.7,24.0,29.64,SE,134,4.0,12.0,14,0.00,,---,0.00,VWS V14.00,2013-05-28 16:12:00,
2013-05-28 09:17:00,76.7,24.0,29.64,SE,135,1.0,12.0,14,0.00,,---,0.00,VWS V14.00,2013-05-28 16:17:00,
2013-05-28 09:22:00,76.7,24.0,29.64,South,174,2.0,13.0,14,0.00,,---,0.00,VWS V14.00,2013-05-28 16:22:00,
2013-05-28 09:27:00,77.0,22.4,29.63,ESE,121,0.0,13.0,13,0.00,,---,0.00,VWS V14.00,2013-05-28 16:27:00,
2013-05-28 09:32:00,77.3,22.7,29.63,ESE,104,0.0,4.0,13,0.00,,---,0.00,VWS V14.00,2013-05-28 16:32:00,
2013-05-28 09:37:00,77.7,23.0,29.63,SE,126,5.0,17.0,13,0.00,,---,0.00,VWS V14.00,2013-05-28 16:37:00,
2013-05-28 09:42:00,77.5,20.9,29.63,SSE,157,7.0,17.0,12,0.00,,---,0.00,VWS V14.00,2013-05-28 16:42:00,
2013-05-28 09:47:00,77.3,20.8,29.63,SSE,148,7.0,17.0,12,0.00,,---,0.00,VWS V14.00,2013-05-28 16:47:00,
2013-05-28 09:52:00,77.8,23.1,29.63,SSE,150,0.0,17.0,13,0.00,,---,0.00,VWS V14.00,2013-05-28 16:52:00,
2013-05-28 09:57:00,78.2,23.4,29.62,SSE,156,4.0,17.0,13,0.00,,---,0.00,VWS V14.00,2013-05-28 16:57:00,
2013-05-28 10:02:00,78.2,21.5,29.63,South,176,2.0,10.0,12,0.00,,---,0.00,VWS V14.00,2013-05-28 17:02:00,
2013-05-28 10:07:00,78.3,21.6,29.62,South,182,9.0,14.0,12,0.00,,---,0.00,VWS V14.00,2013-05-28 17:07:00,
2013-05-28 10:12:00,78.6,19.8,29.62,SSE,150,6.0,14.0,11,0.00,,---,0.00,VWS V14.00,2013-05-28 17:12:00,
2013-05-28 10:17:00,78.3,19.5,29.62,SE,128,0.0,14.0,11,0.00,,---,0.00,VWS V14.00,2013-05-28 17:17:00,
2013-05-28 10:22:00,78.0,21.3,29.62,WSW,238,5.0,14.0,12,0.00,,---,0.00,VWS V14.00,2013-05-28 17:22:00,
2013-05-28 10:27:00,77.4,20.9,29.62,West,277,0.0,14.0,12,0.00,,---,0.00,VWS V14.00,2013-05-28 17:27:00,
2013-05-28 10:32:00,77.8,19.1,29.62,South,178,9.0,11.0,11,0.00,,---,0.00,VWS V14.00,2013-05-28 17:32:00,
2013-05-28 10:37:00,78.5,19.7,29.62,SSE,159,0.0,12.0,11,0.00,,---,0.00,VWS V14.00,2013-05-28 17:37:00,
2013-05-28 10:42:00,79.6,20.5,29.62,SE,128,0.0,12.0,11,0.00,,---,0.00,VWS V14.00,2013-05-28 17:42:00,
2013-05-28 10:47:00,80.0,18.6,29.62,East,99,3.0,12.0,10,0.00,,---,0.00,VWS V14.00,2013-05-28 17:47:00,
2013-05-28 10:52:00,79.7,18.4,29.62,South,178,7.0,13.0,10,0.00,,---,0.00,VWS V14.00,2013-05-28 17:52:00,
2013-05-28 10:57:00,79.6,18.3,29.62,SSW,203,7.0,14.0,10,0.00,,---,0.00,VWS V14.00,2013-05-28 17:57:00,
2013-05-28 11:03:00,79.6,20.5,29.61,South,169,10.0,11.0,11,0.00,,---,0.00,VWS V14.00,2013-05-28 18:03:00,
2013-05-28 11:08:00,79.7,20.6,29.61,WSW,247,6.0,11.0,11,0.00,,---,0.00,VWS V14.00,2013-05-28 18:08:00,
2013-05-28 11:13:00,80.0,20.8,29.61,West,263,1.0,11.0,11,0.00,,---,0.00,VWS V14.00,2013-05-28 18:13:00,
2013-05-28 11:17:00,80.1,20.9,29.61,SSW,196,0.0,11.0,11,0.00,,---,0.00,VWS V14.00,2013-05-28 18:17:00,
2013-05-28 11:23:00,80.6,21.3,29.61,South,189,12.0,15.0,11,0.00,,---,0.00,VWS V14.00,2013-05-28 18:23:00,
2013-05-28 11:28:00,80.4,21.1,29.60,SE,144,0.0,15.0,11,0.00,,---,0.00,VWS V14.00,2013-05-28 18:28:00,
2013-05-28 11:33:00,80.7,21.4,29.60,SSW,195,0.0,5.0,11,0.00,,---,0.00,VWS V14.00,2013-05-28 18:33:00,
2013-05-28 11:38:00,81.2,21.8,29.59,SSE,150,4.0,17.0,11,0.00,,---,0.00,VWS V14.00,2013-05-28 18:38:00,
2013-05-28 11:43:00,81.4,19.7,29.59,South,178,0.0,17.0,10,0.00,,---,0.00,VWS V14.00,2013-05-28 18:43:00,
2013-05-28 11:48:00,81.8,20.0,29.59,SSE,156,9.0,17.0,10,0.00,,---,0.00,VWS V14.00,2013-05-28 18:48:00,
2013-05-28 11:53:00,82.7,20.6,29.58,SE,126,0.0,17.0,10,0.00,,---,0.00,VWS V14.00,2013-05-28 18:53:00,
2013-05-28 11:58:00,83.0,18.4,29.58,South,180,14.0,17.0,9,0.00,,---,0.00,VWS V14.00,2013-05-28 18:58:00,
2013-05-28 12:03:00,82.6,15.4,29.58,SSW,213,0.0,6.0,8,0.00,,---,0.00,VWS V14.00,2013-05-28 19:03:00,
2013-05-28 12:08:00,83.3,15.9,29.58,SSW,198,11.0,23.0,8,0.00,,---,0.00,VWS V14.00,2013-05-28 19:08:00,
2013-05-28 12:13:00,83.6,13.1,29.58,South,185,7.0,23.0,7,0.00,,---,0.00,VWS V14.00,2013-05-28 19:13:00,
2013-05-28 12:18:00,83.0,12.6,29.58,West,261,10.0,23.0,7,0.00,,---,0.00,VWS V14.00,2013-05-28 19:18:00,
2013-05-28 12:23:00,83.6,13.1,29.58,SE,141,7.0,23.0,7,0.00,,---,0.00,VWS V14.00,2013-05-28 19:23:00,
2013-05-28 12:28:00,83.5,16.1,29.57,SW,223,0.0,23.0,8,0.00,,---,0.00,VWS V14.00,2013-05-28 19:28:00,
2013-05-28 12:33:00,82.9,15.6,29.57,SSE,150,1.0,11.0,8,0.00,,---,0.00,VWS V14.00,2013-05-28 19:33:00,
2013-05-28 12:38:00,83.2,15.8,29.57,SW,225,11.0,13.0,8,0.00,,---,0.00,VWS V14.00,2013-05-28 19:38:00,
2013-05-28 12:43:00,83.2,15.8,29.56,SSW,203,14.0,22.0,8,0.00,,---,0.00,VWS V14.00,2013-05-28 19:43:00,
2013-05-28 12:48:00,83.9,13.3,29.57,SW,219,7.0,22.0,7,0.00,,---,0.00,VWS V14.00,2013-05-28 19:48:00,
2013-05-28 12:53:00,84.1,13.4,29.57,SW,215,14.0,22.0,7,0.00,,---,0.00,VWS V14.00,2013-05-28 19:53:00,
2013-05-28 12:58:00,84.3,13.6,29.58,WSW,245,10.0,22.0,7,0.00,,---,0.00,VWS V14.00,2013-05-28 19:58:00,
2013-05-28 13:03:00,84.6,13.8,29.57,SW,227,13.0,19.0,7,0.00,,---,0.00,VWS V14.00,2013-05-28 20:03:00,
2013-05-28 13:08:00,84.6,13.8,29.57,SSW,202,11.0,21.0,7,0.00,,---,0.00,VWS V14.00,2013-05-28 20:08:00,
2013-05-28 13:13:00,84.3,13.6,29.56,WSW,244,5.0,21.0,7,0.00,,---,0.00,VWS V14.00,2013-05-28 20:13:00,
2013-05-28 13:18:00,84.5,13.8,29.56,SW,215,14.0,21.0,7,0.00,,---,0.00,VWS V14.00,2013-05-28 20:18:00,
2013-05-28 13:23:00,85.1,14.2,29.56,SW,221,9.0,21.0,7,0.00,,---,0.00,VWS V14.00,2013-05-28 20:23:00,
2013-05-28 13:28:00,84.7,13.9,29.56,SE,144,4.0,22.0,7,0.00,,---,0.00,VWS V14.00,2013-05-28 20:28:00,
2013-05-28 13:33:00,84.9,14.0,29.56,SW,232,19.0,19.0,7,0.00,,---,0.00,VWS V14.00,2013-05-28 20:33:00,
2013-05-28 13:38:00,85.0,14.1,29.56,SSW,209,15.0,24.0,7,0.00,,---,0.00,VWS V14.00,2013-05-28 20:38:00,
2013-05-28 13:43:00,84.6,13.8,29.56,WNW,284,9.0,24.0,7,0.00,,---,0.00,VWS V14.00,2013-05-28 20:43:00,
2013-05-28 13:48:00,85.1,14.2,29.56,SSW,212,20.0,24.0,7,0.00,,---,0.00,VWS V14.00,2013-05-28 20:48:00,
2013-05-28 13:53:00,84.6,13.8,29.56,SW,231,16.0,24.0,7,0.00,,---,0.00,VWS V14.00,2013-05-28 20:53:00,
2013-05-28 13:58:00,85.0,14.1,29.55,SW,221,5.0,24.0,7,0.00,,---,0.00,VWS V14.00,2013-05-28 20:58:00,
2013-05-28 14:03:00,85.4,14.4,29.55,South,184,10.0,16.0,7,0.00,,---,0.00,VWS V14.00,2013-05-28 21:03:00,
2013-05-28 14:08:00,85.2,17.3,29.55,SW,233,8.0,21.0,8,0.00,,---,0.00,VWS V14.00,2013-05-28 21:08:00,
2013-05-28 14:13:00,85.2,17.3,29.55,WSW,246,9.0,21.0,8,0.00,,---,0.00,VWS V14.00,2013-05-28 21:13:00,
2013-05-28 14:18:00,85.1,17.2,29.55,West,262,16.0,22.0,8,0.00,,---,0.00,VWS V14.00,2013-05-28 21:18:00,
2013-05-28 14:23:00,84.3,16.7,29.55,West,275,13.0,22.0,8,0.00,,---,0.00,VWS V14.00,2013-05-28 21:23:00,
2013-05-28 14:28:00,84.6,19.6,29.55,WSW,242,19.0,23.0,9,0.00,,---,0.00,VWS V14.00,2013-05-28 21:28:00,
2013-05-28 14:33:00,84.8,19.8,29.55,SSW,211,7.0,15.0,9,0.00,,---,0.00,VWS V14.00,2013-05-28 21:33:00,
2013-05-28 14:38:00,84.7,19.7,29.55,WSW,252,11.0,15.0,9,0.00,,---,0.00,VWS V14.00,2013-05-28 21:38:00,
2013-05-28 14:43:00,85.6,20.4,29.54,West,278,16.0,17.0,9,0.00,,---,0.00,VWS V14.00,2013-05-28 21:43:00,
2013-05-28 14:48:00,85.6,20.4,29.55,West,281,13.0,22.0,9,0.00,,---,0.00,VWS V14.00,2013-05-28 21:48:00,
2013-05-28 14:53:00,85.2,20.1,29.55,SW,216,8.0,22.0,9,0.00,,---,0.00,VWS V14.00,2013-05-28 21:53:00,
2013-05-28 14:58:00,84.7,19.7,29.54,NW,305,3.0,22.0,9,0.00,,---,0.00,VWS V14.00,2013-05-28 21:58:00,
2013-05-28 15:03:00,84.7,17.0,29.54,South,170,12.0,25.0,8,0.00,,---,0.00,VWS V14.00,2013-05-28 22:03:00,
2013-05-28 15:08:00,84.8,17.0,29.54,SW,228,6.0,25.0,8,0.00,,---,0.00,VWS V14.00,2013-05-28 22:08:00,
2013-05-28 15:13:00,84.4,16.7,29.53,SW,234,4.0,25.0,8,0.00,,---,0.00,VWS V14.00,2013-05-28 22:13:00,
2013-05-28 15:18:00,84.0,16.4,29.53,WSW,257,14.0,25.0,8,0.00,,---,0.00,VWS V14.00,2013-05-28 22:18:00,
2013-05-28 15:23:00,84.2,13.5,29.54,SW,220,5.0,25.0,7,0.00,,---,0.00,VWS V14.00,2013-05-28 22:23:00,
2013-05-28 15:28:00,83.9,16.4,29.54,South,184,1.0,25.0,8,0.00,,---,0.00,VWS V14.00,2013-05-28 22:28:00,
2013-05-28 15:33:00,84.0,13.4,29.54,SSW,211,13.0,19.0,7,0.00,,---,0.00,VWS V14.00,2013-05-28 22:33:00,
2013-05-28 15:38:00,83.4,12.9,29.54,WSW,254,11.0,20.0,7,0.00,,---,0.00,VWS V14.00,2013-05-28 22:38:00,
2013-05-28 15:43:00,83.4,12.9,29.54,South,169,16.0,20.0,7,0.00,,---,0.00,VWS V14.00,2013-05-28 22:43:00,
2013-05-28 15:48:00,83.1,12.7,29.53,SSW,208,15.0,20.0,7,0.00,,---,0.00,VWS V14.00,2013-05-28 22:48:00,
2013-05-28 15:53:00,82.8,12.5,29.54,SW,227,23.0,23.0,7,0.00,,---,0.00,VWS V14.00,2013-05-28 22:53:00,
2013-05-28 15:58:00,83.0,12.6,29.54,SW,223,16.0,23.0,7,0.00,,---,0.00,VWS V14.00,2013-05-28 22:58:00,
2013-05-28 16:03:00,83.0,12.6,29.53,SW,227,14.0,19.0,7,0.00,,---,0.00,VWS V14.00,2013-05-28 23:03:00,
2013-05-28 16:08:00,82.7,12.4,29.54,WSW,254,13.0,24.0,7,0.00,,---,0.00,VWS V14.00,2013-05-28 23:08:00,
2013-05-28 16:13:00,82.8,12.5,29.53,SW,234,7.0,24.0,7,0.00,,---,0.00,VWS V14.00,2013-05-28 23:13:00,
2013-05-28 16:18:00,82.8,15.5,29.53,WSW,245,11.0,24.0,8,0.00,,---,0.00,VWS V14.00,2013-05-28 23:18:00,
2013-05-28 16:23:00,82.6,12.4,29.53,SW,236,17.0,24.0,7,0.00,,---,0.00,VWS V14.00,2013-05-28 23:23:00,
2013-05-28 16:28:00,82.4,15.2,29.53,SW,232,10.0,24.0,8,0.00,,---,0.00,VWS V14.00,2013-05-28 23:28:00,
2013-05-28 16:33:00,82.4,15.2,29.53,WSW,239,16.0,21.0,8,0.00,,---,0.00,VWS V14.00,2013-05-28 23:33:00,
2013-05-28 16:38:00,82.6,15.4,29.53,WSW,245,7.0,22.0,8,0.00,,---,0.00,VWS V14.00,2013-05-28 23:38:00,
2013-05-28 16:43:00,82.7,15.5,29.52,West,271,18.0,22.0,8,0.00,,---,0.00,VWS V14.00,2013-05-28 23:43:00,
2013-05-28 16:48:00,82.5,15.3,29.52,SSW,209,9.0,22.0,8,0.00,,---,0.00,VWS V14.00,2013-05-28 23:48:00,
2013-05-28 16:53:00,82.2,15.1,29.52,SW,229,5.0,22.0,8,0.00,,---,0.00,VWS V14.00,2013-05-28 23:53:00,
2013-05-28 16:58:00,81.7,14.7,29.52,SW,223,9.0,22.0,8,0.00,,---,0.00,VWS V14.00,2013-05-28 23:58:00,
2013-05-28 17:03:00,81.4,14.5,29.52,SSW,213,16.0,25.0,8,0.00,,---,0.00,VWS V14.00,2013-05-29 00:03:00,
2013-05-28 17:08:00,81.1,14.3,29.52,WSW,246,12.0,25.0,8,0.00,,---,0.00,VWS V14.00,2013-05-29 00:08:00,
2013-05-28 17:13:00,81.4,14.5,29.52,SW,234,12.0,25.0,8,0.00,,---,0.00,VWS V14.00,2013-05-29 00:13:00,
2013-05-28 17:18:00,81.4,14.5,29.52,SSE,159,16.0,25.0,8,0.00,,---,0.00,VWS V14.00,2013-05-29 00:18:00,
2013-05-28 17:23:00,81.1,14.3,29.51,SW,219,11.0,25.0,8,0.00,,---,0.00,VWS V14.00,2013-05-29 00:23:00,
2013-05-28 17:28:00,80.9,16.8,29.51,SSW,211,14.0,25.0,9,0.00,,---,0.00,VWS V14.00,2013-05-29 00:28:00,
2013-05-28 17:33:00,80.8,14.1,29.51,WSW,245,16.0,16.0,8,0.00,,---,0.00,VWS V14.00,2013-05-29 00:33:00,
2013-05-28 17:38:00,80.7,16.7,29.51,WSW,252,11.0,20.0,9,0.00,,---,0.00,VWS V14.00,2013-05-29 00:38:00,
2013-05-28 17:43:00,80.7,14.0,29.52,SW,226,12.0,20.0,8,0.00,,---,0.00,VWS V14.00,2013-05-29 00:43:00,
2013-05-28 17:48:00,80.7,16.7,29.52,SW,229,14.0,20.0,9,0.00,,---,0.00,VWS V14.00,2013-05-29 00:48:00,
2013-05-28 17:54:00,80.9,16.8,29.52,SW,217,6.0,21.0,9,0.00,,---,0.00,VWS V14.00,2013-05-29 00:54:00,
2013-05-28 17:59:00,80.7,16.7,29.52,WSW,246,18.0,21.0,9,0.00,,---,0.00,VWS V14.00,2013-05-29 00:59:00,
2013-05-28 18:04:00,80.5,16.5,29.52,SW,221,8.0,17.0,9,0.00,,---,0.00,VWS V14.00,2013-05-29 01:04:00,
2013-05-28 18:09:00,80.5,16.5,29.52,SW,222,13.0,17.0,9,0.00,,---,0.00,VWS V14.00,2013-05-29 01:09:00,
2013-05-28 18:14:00,80.4,16.5,29.53,WSW,250,11.0,17.0,9,0.00,,---,0.00,VWS V14.00,2013-05-29 01:14:00,
2013-05-28 18:19:00,80.3,18.8,29.53,WSW,237,15.0,17.0,10,0.00,,---,0.00,VWS V14.00,2013-05-29 01:19:00,
2013-05-28 18:24:00,80.0,18.6,29.53,SSW,209,12.0,18.0,10,0.00,,---,0.00,VWS V14.00,2013-05-29 01:24:00,
2013-05-28 18:29:00,79.8,18.4,29.53,SW,234,6.0,19.0,10,0.00,,---,0.00,VWS V14.00,2013-05-29 01:29:00,
2013-05-28 18:34:00,79.6,18.3,29.53,West,261,10.0,13.0,10,0.00,,---,0.00,VWS V14.00,2013-05-29 01:34:00,
2013-05-28 18:39:00,79.4,18.1,29.53,SW,227,5.0,14.0,10,0.00,,---,0.00,VWS V14.00,2013-05-29 01:39:00,
2013-05-28 18:44:00,79.1,17.9,29.53,WSW,254,11.0,14.0,10,0.00,,---,0.00,VWS V14.00,2013-05-29 01:44:00,
2013-05-28 18:49:00,78.8,17.7,29.54,SW,233,5.0,17.0,10,0.00,,---,0.00,VWS V14.00,2013-05-29 01:49:00,
2013-05-28 18:54:00,78.5,17.5,29.53,SW,236,11.0,17.0,10,0.00,,---,0.00,VWS V14.00,2013-05-29 01:54:00,
2013-05-28 18:59:00,78.1,19.4,29.54,WSW,256,6.0,18.0,11,0.00,,---,0.00,VWS V14.00,2013-05-29 01:59:00,
2013-05-28 19:04:00,77.6,19.0,29.54,WSW,253,12.0,15.0,11,0.00,,---,0.00,VWS V14.00,2013-05-29 02:04:00,
2013-05-28 19:09:00,77.3,18.8,29.54,SSW,211,7.0,15.0,11,0.00,,---,0.00,VWS V14.00,2013-05-29 02:09:00,
2013-05-28 19:14:00,76.9,18.4,29.53,SW,234,6.0,15.0,11,0.00,,---,0.00,VWS V14.00,2013-05-29 02:14:00,
2013-05-28 19:19:00,76.4,20.1,29.53,WSW,244,3.0,15.0,12,0.00,,---,0.00,VWS V14.00,2013-05-29 02:19:00,
2013-05-28 19:24:00,76.0,19.8,29.53,WSW,244,0.0,15.0,12,0.00,,---,0.00,VWS V14.00,2013-05-29 02:24:00,
2013-05-28 19:29:00,75.7,19.5,29.53,WSW,242,0.0,15.0,12,0.00,,---,0.00,VWS V14.00,2013-05-29 02:29:00,
2013-05-28 19:34:00,75.3,19.2,29.54,WSW,244,0.0,3.0,12,0.00,,---,0.00,VWS V14.00,2013-05-29 02:34:00,
2013-05-28 19:39:00,74.7,20.6,29.54,WSW,244,3.0,5.0,13,0.00,,---,0.00,VWS V14.00,2013-05-29 02:39:00,
2013-05-28 19:44:00,74.3,20.3,29.53,WSW,248,0.0,7.0,13,0.00,,---,0.00,VWS V14.00,2013-05-29 02:44:00,
2013-05-28 19:49:00,73.9,21.7,29.54,WSW,247,0.0,7.0,14,0.00,,---,0.00,VWS V14.00,2013-05-29 02:49:00,
2013-05-28 19:54:00,73.4,21.4,29.54,WSW,242,0.0,7.0,14,0.00,,---,0.00,VWS V14.00,2013-05-29 02:54:00,
2013-05-28 19:59:00,72.7,20.8,29.54,WSW,241,0.0,7.0,14,0.00,,---,0.00,VWS V14.00,2013-05-29 02:59:00,
2013-05-28 20:04:00,72.2,22.0,29.54,WSW,241,3.0,3.0,15,0.00,,---,0.00,VWS V14.00,2013-05-29 03:04:00,
2013-05-28 20:09:00,71.8,21.7,29.54,WSW,241,0.0,3.0,15,0.00,,---,0.00,VWS V14.00,2013-05-29 03:09:00,
2013-05-28 20:14:00,72.0,23.4,29.54,WSW,244,4.0,10.0,16,0.00,,---,0.00,VWS V14.00,2013-05-29 03:14:00,
2013-05-28 20:19:00,72.6,23.9,29.55,SW,232,10.0,11.0,16,0.00,,---,0.00,VWS V14.00,2013-05-29 03:19:00,
2013-05-28 20:24:00,72.5,23.8,29.55,WSW,252,0.0,12.0,16,0.00,,---,0.00,VWS V14.00,2013-05-29 03:24:00,
2013-05-28 20:29:00,71.7,23.1,29.55,WSW,252,0.0,12.0,16,0.00,,---,0.00,VWS V14.00,2013-05-29 03:29:00,
2013-05-28 20:34:00,71.2,22.8,29.55,WSW,251,0.0,0.0,16,0.00,,---,0.00,VWS V14.00,2013-05-29 03:34:00,
2013-05-28 20:39:00,70.4,23.5,29.55,WSW,251,0.0,0.0,17,0.00,,---,0.00,VWS V14.00,2013-05-29 03:39:00,
2013-05-28 20:44:00,69.4,22.7,29.55,WSW,251,0.0,0.0,17,0.00,,---,0.00,VWS V14.00,2013-05-29 03:44:00,
2013-05-28 20:49:00,68.6,22.1,29.56,WSW,251,0.0,0.0,17,0.00,,---,0.00,VWS V14.00,2013-05-29 03:49:00,
2013-05-28 20:54:00,67.9,22.9,29.56,WSW,251,0.0,0.0,18,0.00,,---,0.00,VWS V14.00,2013-05-29 03:54:00,
2013-05-28 20:59:00,68.3,23.2,29.56,WSW,251,5.0,5.0,18,0.00,,---,0.00,VWS V14.00,2013-05-29 03:59:00,
2013-05-28 21:01:00,68.7,23.5,29.56,South,181,0.0,10.0,18,0.00,,---,0.00,VWS V14.00,2013-05-29 04:01:00,
2013-05-28 21:06:00,70.2,23.4,29.57,SSW,207,0.0,6.0,17,0.00,,---,0.00,VWS V14.00,2013-05-29 04:06:00,
2013-05-28 21:11:00,70.7,25.1,29.56,SSW,202,0.0,11.0,18,0.00,,---,0.00,VWS V14.00,2013-05-29 04:11:00,
2013-05-28 21:16:00,71.5,24.4,29.57,SW,215,0.0,14.0,17,0.00,,---,0.00,VWS V14.00,2013-05-29 04:16:00,
2013-05-28 21:21:00,71.7,24.6,29.57,SW,222,1.0,14.0,17,0.00,,---,0.00,VWS V14.00,2013-05-29 04:21:00,
2013-05-28 21:26:00,71.5,25.8,29.57,SSW,213,6.0,14.0,18,0.00,,---,0.00,VWS V14.00,2013-05-29 04:26:00,
2013-05-28 21:31:00,71.2,26.9,29.57,WSW,240,0.0,14.0,19,0.00,,---,0.00,VWS V14.00,2013-05-29 04:31:00,
2013-05-28 21:36:00,70.5,26.3,29.58,WSW,242,0.0,5.0,19,0.00,,---,0.00,VWS V14.00,2013-05-29 04:36:00,
2013-05-28 21:41:00,69.6,25.5,29.58,WSW,242,0.0,5.0,19,0.00,,---,0.00,VWS V14.00,2013-05-29 04:41:00,
2013-05-28 21:46:00,68.5,25.9,29.58,WSW,242,0.0,5.0,20,0.00,,---,0.00,VWS V14.00,2013-05-29 04:46:00,
2013-05-28 21:51:00,67.0,24.6,29.58,WSW,242,0.0,5.0,20,0.00,,---,0.00,VWS V14.00,2013-05-29 04:51:00,
2013-05-28 21:56:00,65.9,26.0,29.58,WSW,242,0.0,5.0,22,0.00,,---,0.00,VWS V14.00,2013-05-29 04:56:00,
2013-05-28 22:01:00,65.4,25.6,29.58,WSW,242,0.0,5.0,22,0.00,,---,0.00,VWS V14.00,2013-05-29 05:01:00,
2013-05-28 22:06:00,65.2,27.5,29.58,WSW,242,0.0,0.0,24,0.00,,---,0.00,VWS V14.00,2013-05-29 05:06:00,
2013-05-28 22:12:00,65.0,27.4,29.58,WSW,242,0.0,0.0,24,0.00,,---,0.00,VWS V14.00,2013-05-29 05:12:00,
2013-05-28 22:17:00,64.9,28.3,29.59,WSW,242,0.0,0.0,25,0.00,,---,0.00,VWS V14.00,2013-05-29 05:17:00,
2013-05-28 22:22:00,64.3,27.8,29.59,WSW,242,0.0,0.0,25,0.00,,---,0.00,VWS V14.00,2013-05-29 05:22:00,
2013-05-28 22:27:00,64.8,28.2,29.59,WSW,242,0.0,1.0,25,0.00,,---,0.00,VWS V14.00,2013-05-29 05:27:00,
2013-05-28 22:32:00,65.9,30.1,29.59,WSW,239,2.0,2.0,26,0.00,,---,0.00,VWS V14.00,2013-05-29 05:32:00,
2013-05-28 22:37:00,66.9,30.0,29.59,SSE,157,0.0,6.0,25,0.00,,---,0.00,VWS V14.00,2013-05-29 05:37:00,
2013-05-28 22:42:00,67.1,30.1,29.59,SW,214,0.0,6.0,25,0.00,,---,0.00,VWS V14.00,2013-05-29 05:42:00,
2013-05-28 22:47:00,66.9,30.0,29.59,SW,214,0.0,6.0,25,0.00,,---,0.00,VWS V14.00,2013-05-29 05:47:00,
2013-05-28 22:52:00,66.9,30.0,29.59,SSW,204,0.0,6.0,25,0.00,,---,0.00,VWS V14.00,2013-05-29 05:52:00,
2013-05-28 22:57:00,66.7,28.8,29.59,SSW,202,0.0,6.0,24,0.00,,---,0.00,VWS V14.00,2013-05-29 05:57:00,
2013-05-28 23:02:00,66.1,30.2,29.59,SSW,202,0.0,0.0,26,0.00,,---,0.00,VWS V14.00,2013-05-29 06:02:00,
2013-05-28 23:07:00,65.8,30.0,29.59,South,177,0.0,3.0,26,0.00,,---,0.00,VWS V14.00,2013-05-29 06:07:00,
2013-05-28 23:12:00,66.1,31.2,29.59,South,178,5.0,7.0,27,0.00,,---,0.00,VWS V14.00,2013-05-29 06:12:00,
2013-05-28 23:17:00,66.6,31.6,29.59,South,181,0.0,7.0,27,0.00,,---,0.00,VWS V14.00,2013-05-29 06:17:00,
2013-05-28 23:22:00,67.0,31.0,29.59,South,177,3.0,7.0,26,0.00,,---,0.00,VWS V14.00,2013-05-29 06:22:00,
2013-05-28 23:27:00,67.3,31.3,29.59,SW,234,2.0,9.0,26,0.00,,---,0.00,VWS V14.00,2013-05-29 06:27:00,
2013-05-28 23:32:00,67.3,31.3,29.59,SW,225,8.0,10.0,26,0.00,,---,0.00,VWS V14.00,2013-05-29 06:32:00,
2013-05-28 23:37:00,67.3,31.3,29.59,SSW,207,0.0,11.0,26,0.00,,---,0.00,VWS V14.00,2013-05-29 06:37:00,
2013-05-28 23:42:00,66.9,31.9,29.59,SSW,213,0.0,11.0,27,0.00,,---,0.00,VWS V14.00,2013-05-29 06:42:00,
2013-05-28 23:47:00,66.7,31.7,29.59,SSW,211,2.0,11.0,27,0.00,,---,0.00,VWS V14.00,2013-05-29 06:47:00,
2013-05-28 23:52:00,66.6,31.6,29.59,SSW,213,10.0,11.0,27,0.00,,---,0.00,VWS V14.00,2013-05-29 06:52:00,
2013-05-28 23:57:00,66.7,31.7,29.59,SW,217,0.0,11.0,27,0.00,,---,0.00,VWS V14.00,2013-05-29 06:57:00,